sensor_id;sensor_type;location;lat;lon;timestamp;temperature;humidity
53962;DHT22;39868;53.398;6.564;2023-12-20T00:01:04;9.10;90.50
53962;DHT22;39868;53.398;6.564;2023-12-20T00:03:31;9.10;90.40
53962;DHT22;39868;53.398;6.564;2023-12-20T00:06:09;9.10;90.40
53962;DHT22;39868;53.398;6.564;2023-12-20T00:08:37;9.00;90.30
53962;DHT22;39868;53.398;6.564;2023-12-20T00:11:04;9.00;90.30
53962;DHT22;39868;53.398;6.564;2023-12-20T00:13:31;9.00;90.30
53962;DHT22;39868;53.398;6.564;2023-12-20T00:15:59;9.00;90.30
53962;DHT22;39868;53.398;6.564;2023-12-20T00:18:26;9.00;90.20
53962;DHT22;39868;53.398;6.564;2023-12-20T00:20:53;9.00;90.30
53962;DHT22;39868;53.398;6.564;2023-12-20T00:23:20;9.00;90.30
53962;DHT22;39868;53.398;6.564;2023-12-20T00:25:50;9.00;90.30
53962;DHT22;39868;53.398;6.564;2023-12-20T00:28:17;8.90;90.20
53962;DHT22;39868;53.398;6.564;2023-12-20T00:30:44;8.90;90.30
53962;DHT22;39868;53.398;6.564;2023-12-20T00:33:12;8.90;90.20
53962;DHT22;39868;53.398;6.564;2023-12-20T00:35:40;8.90;90.20
53962;DHT22;39868;53.398;6.564;2023-12-20T00:38:07;8.90;90.30
53962;DHT22;39868;53.398;6.564;2023-12-20T00:40:35;8.90;90.30
53962;DHT22;39868;53.398;6.564;2023-12-20T00:43:03;8.90;90.30
53962;DHT22;39868;53.398;6.564;2023-12-20T00:45:30;8.90;90.30
53962;DHT22;39868;53.398;6.564;2023-12-20T00:47:57;8.90;90.30
53962;DHT22;39868;53.398;6.564;2023-12-20T00:50:26;8.90;90.30
53962;DHT22;39868;53.398;6.564;2023-12-20T00:52:56;8.90;90.30
53962;DHT22;39868;53.398;6.564;2023-12-20T00:55:23;9.00;90.30
53962;DHT22;39868;53.398;6.564;2023-12-20T00:57:51;9.00;90.40
53962;DHT22;39868;53.398;6.564;2023-12-20T01:00:19;9.00;90.40
53962;DHT22;39868;53.398;6.564;2023-12-20T01:02:46;9.00;90.40
53962;DHT22;39868;53.398;6.564;2023-12-20T01:05:16;9.00;90.40
53962;DHT22;39868;53.398;6.564;2023-12-20T01:07:44;9.00;90.40
53962;DHT22;39868;53.398;6.564;2023-12-20T01:10:12;8.90;90.40
53962;DHT22;39868;53.398;6.564;2023-12-20T01:12:39;9.00;90.50
53962;DHT22;39868;53.398;6.564;2023-12-20T01:15:07;9.00;90.50
53962;DHT22;39868;53.398;6.564;2023-12-20T01:17:34;9.00;90.50
53962;DHT22;39868;53.398;6.564;2023-12-20T01:20:02;9.00;90.40
53962;DHT22;39868;53.398;6.564;2023-12-20T01:22:29;9.00;90.40
53962;DHT22;39868;53.398;6.564;2023-12-20T01:24:56;9.00;90.40
53962;DHT22;39868;53.398;6.564;2023-12-20T01:27:24;9.00;90.40
53962;DHT22;39868;53.398;6.564;2023-12-20T01:29:51;9.00;90.40
53962;DHT22;39868;53.398;6.564;2023-12-20T01:32:18;9.00;90.50
53962;DHT22;39868;53.398;6.564;2023-12-20T01:34:45;9.00;90.50
53962;DHT22;39868;53.398;6.564;2023-12-20T01:37:13;9.00;90.40
53962;DHT22;39868;53.398;6.564;2023-12-20T01:39:40;9.00;90.40
53962;DHT22;39868;53.398;6.564;2023-12-20T01:42:08;9.00;90.40
53962;DHT22;39868;53.398;6.564;2023-12-20T01:44:35;9.00;90.40
53962;DHT22;39868;53.398;6.564;2023-12-20T01:47:02;9.00;90.40
53962;DHT22;39868;53.398;6.564;2023-12-20T01:49:30;9.00;90.40
53962;DHT22;39868;53.398;6.564;2023-12-20T01:51:58;9.00;90.30
53962;DHT22;39868;53.398;6.564;2023-12-20T01:54:25;9.00;90.30
53962;DHT22;39868;53.398;6.564;2023-12-20T01:56:52;8.90;90.30
53962;DHT22;39868;53.398;6.564;2023-12-20T01:59:20;8.90;90.30
53962;DHT22;39868;53.398;6.564;2023-12-20T02:01:48;8.90;90.60
53962;DHT22;39868;53.398;6.564;2023-12-20T02:04:16;8.90;90.40
53962;DHT22;39868;53.398;6.564;2023-12-20T02:06:46;8.90;90.40
53962;DHT22;39868;53.398;6.564;2023-12-20T02:09:15;8.90;90.40
53962;DHT22;39868;53.398;6.564;2023-12-20T02:11:43;9.00;90.50
53962;DHT22;39868;53.398;6.564;2023-12-20T02:14:10;9.00;90.40
53962;DHT22;39868;53.398;6.564;2023-12-20T02:16:38;9.00;90.50
53962;DHT22;39868;53.398;6.564;2023-12-20T02:19:12;9.00;90.40
53962;DHT22;39868;53.398;6.564;2023-12-20T02:21:40;9.00;90.40
53962;DHT22;39868;53.398;6.564;2023-12-20T02:24:07;9.00;90.40
53962;DHT22;39868;53.398;6.564;2023-12-20T02:26:34;9.00;90.40
53962;DHT22;39868;53.398;6.564;2023-12-20T02:29:02;9.00;90.50
53962;DHT22;39868;53.398;6.564;2023-12-20T02:31:29;9.00;90.50
53962;DHT22;39868;53.398;6.564;2023-12-20T02:33:57;9.00;90.50
53962;DHT22;39868;53.398;6.564;2023-12-20T02:36:24;9.10;90.60
53962;DHT22;39868;53.398;6.564;2023-12-20T02:38:51;9.10;90.60
53962;DHT22;39868;53.398;6.564;2023-12-20T02:41:19;9.10;90.60
53962;DHT22;39868;53.398;6.564;2023-12-20T02:43:46;9.10;90.60
53962;DHT22;39868;53.398;6.564;2023-12-20T02:46:16;9.10;90.60
53962;DHT22;39868;53.398;6.564;2023-12-20T02:48:44;9.20;90.60
53962;DHT22;39868;53.398;6.564;2023-12-20T02:51:11;9.20;90.50
53962;DHT22;39868;53.398;6.564;2023-12-20T02:53:38;9.20;90.50
53962;DHT22;39868;53.398;6.564;2023-12-20T02:56:06;9.20;90.50
53962;DHT22;39868;53.398;6.564;2023-12-20T02:58:33;9.30;90.50
53962;DHT22;39868;53.398;6.564;2023-12-20T03:01:00;9.30;90.50
53962;DHT22;39868;53.398;6.564;2023-12-20T03:03:28;9.30;90.50
53962;DHT22;39868;53.398;6.564;2023-12-20T03:05:55;9.30;90.40
53962;DHT22;39868;53.398;6.564;2023-12-20T03:08:22;9.30;90.40
53962;DHT22;39868;53.398;6.564;2023-12-20T03:10:50;9.40;90.40
53962;DHT22;39868;53.398;6.564;2023-12-20T03:13:17;9.40;90.40
53962;DHT22;39868;53.398;6.564;2023-12-20T03:15:45;9.40;90.30
53962;DHT22;39868;53.398;6.564;2023-12-20T03:18:13;9.40;90.30
53962;DHT22;39868;53.398;6.564;2023-12-20T03:20:40;9.40;90.30
53962;DHT22;39868;53.398;6.564;2023-12-20T03:23:08;9.30;90.30
53962;DHT22;39868;53.398;6.564;2023-12-20T03:25:36;9.40;90.30
53962;DHT22;39868;53.398;6.564;2023-12-20T03:28:03;9.40;90.20
53962;DHT22;39868;53.398;6.564;2023-12-20T03:30:31;9.40;90.20
53962;DHT22;39868;53.398;6.564;2023-12-20T03:32:58;9.40;90.20
53962;DHT22;39868;53.398;6.564;2023-12-20T03:35:25;9.40;90.20
53962;DHT22;39868;53.398;6.564;2023-12-20T03:37:53;9.40;90.20
53962;DHT22;39868;53.398;6.564;2023-12-20T03:40:20;9.40;90.10
53962;DHT22;39868;53.398;6.564;2023-12-20T03:42:47;9.40;90.10
53962;DHT22;39868;53.398;6.564;2023-12-20T03:45:15;9.40;90.00
53962;DHT22;39868;53.398;6.564;2023-12-20T03:47:42;9.40;90.00
53962;DHT22;39868;53.398;6.564;2023-12-20T03:50:10;9.50;90.30
53962;DHT22;39868;53.398;6.564;2023-12-20T03:52:37;9.50;90.10
53962;DHT22;39868;53.398;6.564;2023-12-20T03:55:05;9.40;90.10
53962;DHT22;39868;53.398;6.564;2023-12-20T03:57:32;9.50;90.00
53962;DHT22;39868;53.398;6.564;2023-12-20T03:59:59;9.50;90.00
53962;DHT22;39868;53.398;6.564;2023-12-20T04:02:27;9.50;90.00
53962;DHT22;39868;53.398;6.564;2023-12-20T04:04:54;9.50;90.00
53962;DHT22;39868;53.398;6.564;2023-12-20T04:07:21;9.50;90.00
53962;DHT22;39868;53.398;6.564;2023-12-20T04:09:49;9.50;90.00
53962;DHT22;39868;53.398;6.564;2023-12-20T04:12:16;9.50;90.00
53962;DHT22;39868;53.398;6.564;2023-12-20T04:14:43;9.50;90.00
53962;DHT22;39868;53.398;6.564;2023-12-20T04:17:10;9.50;90.00
53962;DHT22;39868;53.398;6.564;2023-12-20T04:19:37;9.50;90.00
53962;DHT22;39868;53.398;6.564;2023-12-20T04:22:05;9.50;90.00
53962;DHT22;39868;53.398;6.564;2023-12-20T04:24:32;9.50;90.00
53962;DHT22;39868;53.398;6.564;2023-12-20T04:26:59;9.50;90.00
53962;DHT22;39868;53.398;6.564;2023-12-20T04:29:26;9.50;90.00
53962;DHT22;39868;53.398;6.564;2023-12-20T04:31:54;9.50;90.10
53962;DHT22;39868;53.398;6.564;2023-12-20T04:34:22;9.50;90.00
53962;DHT22;39868;53.398;6.564;2023-12-20T04:36:49;9.50;90.00
53962;DHT22;39868;53.398;6.564;2023-12-20T04:39:17;9.60;90.10
53962;DHT22;39868;53.398;6.564;2023-12-20T04:41:44;9.60;90.00
53962;DHT22;39868;53.398;6.564;2023-12-20T04:44:11;9.60;90.10
53962;DHT22;39868;53.398;6.564;2023-12-20T04:46:39;9.60;90.00
53962;DHT22;39868;53.398;6.564;2023-12-20T04:49:06;9.60;90.00
53962;DHT22;39868;53.398;6.564;2023-12-20T04:51:34;9.70;90.00
53962;DHT22;39868;53.398;6.564;2023-12-20T04:54:02;9.70;90.10
53962;DHT22;39868;53.398;6.564;2023-12-20T04:56:29;9.70;90.00
53962;DHT22;39868;53.398;6.564;2023-12-20T04:58:56;9.80;90.10
53962;DHT22;39868;53.398;6.564;2023-12-20T05:01:23;9.80;90.10
53962;DHT22;39868;53.398;6.564;2023-12-20T05:03:51;9.80;90.00
53962;DHT22;39868;53.398;6.564;2023-12-20T05:06:18;9.90;90.00
53962;DHT22;39868;53.398;6.564;2023-12-20T05:08:45;9.90;89.90
53962;DHT22;39868;53.398;6.564;2023-12-20T05:11:12;9.90;89.90
53962;DHT22;39868;53.398;6.564;2023-12-20T05:13:41;9.90;89.70
53962;DHT22;39868;53.398;6.564;2023-12-20T05:16:16;9.90;89.60
53962;DHT22;39868;53.398;6.564;2023-12-20T05:18:47;9.90;89.50
53962;DHT22;39868;53.398;6.564;2023-12-20T05:21:14;10.00;89.70
53962;DHT22;39868;53.398;6.564;2023-12-20T05:23:42;10.00;89.60
53962;DHT22;39868;53.398;6.564;2023-12-20T05:26:09;10.00;89.40
53962;DHT22;39868;53.398;6.564;2023-12-20T05:28:36;10.00;89.30
53962;DHT22;39868;53.398;6.564;2023-12-20T05:31:03;10.00;89.40
53962;DHT22;39868;53.398;6.564;2023-12-20T05:33:31;10.10;89.40
53962;DHT22;39868;53.398;6.564;2023-12-20T05:35:58;10.10;89.50
53962;DHT22;39868;53.398;6.564;2023-12-20T05:38:25;10.10;89.20
53962;DHT22;39868;53.398;6.564;2023-12-20T05:40:53;10.10;89.20
53962;DHT22;39868;53.398;6.564;2023-12-20T05:43:20;10.10;88.90
53962;DHT22;39868;53.398;6.564;2023-12-20T05:45:47;10.10;88.90
53962;DHT22;39868;53.398;6.564;2023-12-20T05:48:14;10.10;89.00
53962;DHT22;39868;53.398;6.564;2023-12-20T05:50:41;10.20;89.00
53962;DHT22;39868;53.398;6.564;2023-12-20T05:53:09;10.20;89.10
53962;DHT22;39868;53.398;6.564;2023-12-20T05:55:36;10.20;88.90
53962;DHT22;39868;53.398;6.564;2023-12-20T05:58:03;10.20;88.80
53962;DHT22;39868;53.398;6.564;2023-12-20T06:00:32;10.20;89.00
53962;DHT22;39868;53.398;6.564;2023-12-20T06:02:59;10.20;88.90
53962;DHT22;39868;53.398;6.564;2023-12-20T06:05:26;10.20;88.80
53962;DHT22;39868;53.398;6.564;2023-12-20T06:07:54;10.20;89.00
53962;DHT22;39868;53.398;6.564;2023-12-20T06:10:23;10.20;88.90
53962;DHT22;39868;53.398;6.564;2023-12-20T06:12:51;10.20;88.80
53962;DHT22;39868;53.398;6.564;2023-12-20T06:15:18;10.20;88.80
53962;DHT22;39868;53.398;6.564;2023-12-20T06:17:45;10.30;89.00
53962;DHT22;39868;53.398;6.564;2023-12-20T06:20:15;10.30;89.10
53962;DHT22;39868;53.398;6.564;2023-12-20T06:22:42;10.30;88.90
53962;DHT22;39868;53.398;6.564;2023-12-20T06:25:10;10.30;88.90
53962;DHT22;39868;53.398;6.564;2023-12-20T06:27:37;10.30;88.80
53962;DHT22;39868;53.398;6.564;2023-12-20T06:30:05;10.30;88.70
53962;DHT22;39868;53.398;6.564;2023-12-20T06:32:32;10.30;88.70
53962;DHT22;39868;53.398;6.564;2023-12-20T06:35:01;10.30;88.70
53962;DHT22;39868;53.398;6.564;2023-12-20T06:37:29;10.30;88.80
53962;DHT22;39868;53.398;6.564;2023-12-20T06:39:56;10.30;88.80
53962;DHT22;39868;53.398;6.564;2023-12-20T06:42:24;10.30;88.80
53962;DHT22;39868;53.398;6.564;2023-12-20T06:44:51;10.30;88.80
53962;DHT22;39868;53.398;6.564;2023-12-20T06:47:18;10.30;88.80
53962;DHT22;39868;53.398;6.564;2023-12-20T06:49:45;10.30;88.90
53962;DHT22;39868;53.398;6.564;2023-12-20T06:52:13;10.30;88.80
53962;DHT22;39868;53.398;6.564;2023-12-20T06:54:40;10.30;88.90
53962;DHT22;39868;53.398;6.564;2023-12-20T06:57:07;10.30;88.90
53962;DHT22;39868;53.398;6.564;2023-12-20T06:59:41;10.40;89.00
53962;DHT22;39868;53.398;6.564;2023-12-20T07:02:09;10.40;89.00
53962;DHT22;39868;53.398;6.564;2023-12-20T07:04:41;10.40;89.00
53962;DHT22;39868;53.398;6.564;2023-12-20T07:07:08;10.40;89.00
53962;DHT22;39868;53.398;6.564;2023-12-20T07:09:36;10.40;88.90
53962;DHT22;39868;53.398;6.564;2023-12-20T07:12:04;10.40;88.90
53962;DHT22;39868;53.398;6.564;2023-12-20T07:14:31;10.40;88.80
53962;DHT22;39868;53.398;6.564;2023-12-20T07:16:58;10.40;88.80
53962;DHT22;39868;53.398;6.564;2023-12-20T07:19:26;10.40;88.70
53962;DHT22;39868;53.398;6.564;2023-12-20T07:21:53;10.40;88.50
53962;DHT22;39868;53.398;6.564;2023-12-20T07:24:21;10.40;88.50
53962;DHT22;39868;53.398;6.564;2023-12-20T07:26:48;10.50;88.60
53962;DHT22;39868;53.398;6.564;2023-12-20T07:29:15;10.50;88.50
53962;DHT22;39868;53.398;6.564;2023-12-20T07:31:42;10.50;88.60
53962;DHT22;39868;53.398;6.564;2023-12-20T07:34:10;10.50;88.60
53962;DHT22;39868;53.398;6.564;2023-12-20T07:36:37;10.50;88.50
53962;DHT22;39868;53.398;6.564;2023-12-20T07:39:04;10.50;88.40
53962;DHT22;39868;53.398;6.564;2023-12-20T07:41:32;10.50;88.30
53962;DHT22;39868;53.398;6.564;2023-12-20T07:43:59;10.60;88.50
53962;DHT22;39868;53.398;6.564;2023-12-20T07:46:27;10.50;88.40
53962;DHT22;39868;53.398;6.564;2023-12-20T07:48:57;10.60;88.50
53962;DHT22;39868;53.398;6.564;2023-12-20T07:51:25;10.60;88.40
53962;DHT22;39868;53.398;6.564;2023-12-20T07:53:52;10.50;88.20
53962;DHT22;39868;53.398;6.564;2023-12-20T07:56:20;10.60;88.20
53962;DHT22;39868;53.398;6.564;2023-12-20T07:58:47;10.60;88.00
53962;DHT22;39868;53.398;6.564;2023-12-20T08:01:20;10.60;88.20
53962;DHT22;39868;53.398;6.564;2023-12-20T08:03:49;10.60;88.20
53962;DHT22;39868;53.398;6.564;2023-12-20T08:06:18;10.60;88.10
53962;DHT22;39868;53.398;6.564;2023-12-20T08:08:46;10.60;88.20
53962;DHT22;39868;53.398;6.564;2023-12-20T08:11:24;10.60;88.30
53962;DHT22;39868;53.398;6.564;2023-12-20T08:13:51;10.60;88.30
53962;DHT22;39868;53.398;6.564;2023-12-20T08:16:19;10.60;87.90
53962;DHT22;39868;53.398;6.564;2023-12-20T08:18:47;10.50;86.30
53962;DHT22;39868;53.398;6.564;2023-12-20T08:21:15;10.30;85.80
53962;DHT22;39868;53.398;6.564;2023-12-20T08:23:42;10.20;85.80
53962;DHT22;39868;53.398;6.564;2023-12-20T08:26:09;10.00;85.80
53962;DHT22;39868;53.398;6.564;2023-12-20T08:28:37;9.90;86.10
53962;DHT22;39868;53.398;6.564;2023-12-20T08:31:04;9.80;86.30
53962;DHT22;39868;53.398;6.564;2023-12-20T08:33:32;9.70;86.50
53962;DHT22;39868;53.398;6.564;2023-12-20T08:35:59;9.60;86.70
53962;DHT22;39868;53.398;6.564;2023-12-20T08:38:27;9.50;86.80
53962;DHT22;39868;53.398;6.564;2023-12-20T08:40:54;9.40;87.00
53962;DHT22;39868;53.398;6.564;2023-12-20T08:43:21;9.30;87.20
53962;DHT22;39868;53.398;6.564;2023-12-20T08:45:49;9.30;87.40
53962;DHT22;39868;53.398;6.564;2023-12-20T08:48:16;9.20;87.60
53962;DHT22;39868;53.398;6.564;2023-12-20T08:50:43;9.10;88.30
53962;DHT22;39868;53.398;6.564;2023-12-20T08:53:11;9.10;87.80
53962;DHT22;39868;53.398;6.564;2023-12-20T08:55:38;9.00;87.70
53962;DHT22;39868;53.398;6.564;2023-12-20T08:58:06;9.00;87.90
53962;DHT22;39868;53.398;6.564;2023-12-20T09:00:35;8.90;88.00
53962;DHT22;39868;53.398;6.564;2023-12-20T09:03:03;8.90;88.10
53962;DHT22;39868;53.398;6.564;2023-12-20T09:05:30;8.80;88.20
53962;DHT22;39868;53.398;6.564;2023-12-20T09:07:57;8.80;88.40
53962;DHT22;39868;53.398;6.564;2023-12-20T09:10:25;8.80;88.50
53962;DHT22;39868;53.398;6.564;2023-12-20T09:12:53;8.80;88.60
53962;DHT22;39868;53.398;6.564;2023-12-20T09:15:26;8.80;88.70
53962;DHT22;39868;53.398;6.564;2023-12-20T09:17:53;8.80;88.80
53962;DHT22;39868;53.398;6.564;2023-12-20T09:20:21;8.80;88.90
53962;DHT22;39868;53.398;6.564;2023-12-20T09:22:50;8.80;89.10
53962;DHT22;39868;53.398;6.564;2023-12-20T09:25:18;8.80;89.20
53962;DHT22;39868;53.398;6.564;2023-12-20T09:27:45;8.90;89.40
53962;DHT22;39868;53.398;6.564;2023-12-20T09:30:13;8.90;89.40
53962;DHT22;39868;53.398;6.564;2023-12-20T09:32:54;8.90;89.50
53962;DHT22;39868;53.398;6.564;2023-12-20T09:35:22;9.00;89.60
53962;DHT22;39868;53.398;6.564;2023-12-20T09:37:50;9.00;89.60
53962;DHT22;39868;53.398;6.564;2023-12-20T09:40:20;9.10;89.70
53962;DHT22;39868;53.398;6.564;2023-12-20T09:42:48;9.10;89.70
53962;DHT22;39868;53.398;6.564;2023-12-20T09:45:20;9.20;90.10
53962;DHT22;39868;53.398;6.564;2023-12-20T09:47:50;9.20;89.80
53962;DHT22;39868;53.398;6.564;2023-12-20T09:50:20;9.30;89.80
53962;DHT22;39868;53.398;6.564;2023-12-20T09:52:50;9.30;89.60
53962;DHT22;39868;53.398;6.564;2023-12-20T09:55:19;9.40;89.60
53962;DHT22;39868;53.398;6.564;2023-12-20T09:57:47;9.40;89.50
53962;DHT22;39868;53.398;6.564;2023-12-20T10:00:16;9.50;89.50
53962;DHT22;39868;53.398;6.564;2023-12-20T10:03:06;9.50;89.40
53962;DHT22;39868;53.398;6.564;2023-12-20T10:05:35;9.60;89.10
53962;DHT22;39868;53.398;6.564;2023-12-20T10:08:03;9.70;89.00
53962;DHT22;39868;53.398;6.564;2023-12-20T10:10:31;9.70;88.90
53962;DHT22;39868;53.398;6.564;2023-12-20T10:13:12;9.80;88.80
53962;DHT22;39868;53.398;6.564;2023-12-20T10:15:40;9.80;88.60
53962;DHT22;39868;53.398;6.564;2023-12-20T10:18:09;9.90;88.40
53962;DHT22;39868;53.398;6.564;2023-12-20T10:20:39;9.80;88.10
53962;DHT22;39868;53.398;6.564;2023-12-20T10:23:07;9.90;87.90
53962;DHT22;39868;53.398;6.564;2023-12-20T10:25:35;9.90;87.70
53962;DHT22;39868;53.398;6.564;2023-12-20T10:28:13;9.90;87.70
53962;DHT22;39868;53.398;6.564;2023-12-20T10:30:41;10.00;87.70
53962;DHT22;39868;53.398;6.564;2023-12-20T10:33:10;10.00;87.30
53962;DHT22;39868;53.398;6.564;2023-12-20T10:35:39;10.00;87.70
53962;DHT22;39868;53.398;6.564;2023-12-20T10:38:12;10.00;87.10
53962;DHT22;39868;53.398;6.564;2023-12-20T10:40:42;10.00;86.80
53962;DHT22;39868;53.398;6.564;2023-12-20T10:43:10;10.00;86.70
53962;DHT22;39868;53.398;6.564;2023-12-20T10:45:38;10.00;86.80
53962;DHT22;39868;53.398;6.564;2023-12-20T10:48:06;10.10;86.70
53962;DHT22;39868;53.398;6.564;2023-12-20T10:50:36;10.10;86.70
53962;DHT22;39868;53.398;6.564;2023-12-20T10:53:06;10.10;86.60
53962;DHT22;39868;53.398;6.564;2023-12-20T10:55:33;10.20;86.60
53962;DHT22;39868;53.398;6.564;2023-12-20T10:58:03;10.20;86.60
53962;DHT22;39868;53.398;6.564;2023-12-20T11:00:39;10.20;86.60
53962;DHT22;39868;53.398;6.564;2023-12-20T11:03:09;10.30;86.70
53962;DHT22;39868;53.398;6.564;2023-12-20T11:06:32;10.30;86.70
53962;DHT22;39868;53.398;6.564;2023-12-20T11:12:22;10.40;86.50
53962;DHT22;39868;53.398;6.564;2023-12-20T11:14:54;10.40;86.30
53962;DHT22;39868;53.398;6.564;2023-12-20T11:17:27;10.40;86.40
53962;DHT22;39868;53.398;6.564;2023-12-20T11:22:31;10.40;85.80
53962;DHT22;39868;53.398;6.564;2023-12-20T11:25:10;10.40;85.70
53962;DHT22;39868;53.398;6.564;2023-12-20T11:27:42;10.40;85.60
53962;DHT22;39868;53.398;6.564;2023-12-20T11:30:15;10.40;85.60
53962;DHT22;39868;53.398;6.564;2023-12-20T11:32:46;10.40;85.40
53962;DHT22;39868;53.398;6.564;2023-12-20T11:37:41;10.50;85.60
53962;DHT22;39868;53.398;6.564;2023-12-20T11:40:14;10.50;85.80
53962;DHT22;39868;53.398;6.564;2023-12-20T11:42:43;10.50;85.50
53962;DHT22;39868;53.398;6.564;2023-12-20T11:45:13;10.50;85.40
53962;DHT22;39868;53.398;6.564;2023-12-20T11:47:46;10.60;85.40
53962;DHT22;39868;53.398;6.564;2023-12-20T11:50:15;10.60;85.90
53962;DHT22;39868;53.398;6.564;2023-12-20T11:52:42;10.60;85.60
53962;DHT22;39868;53.398;6.564;2023-12-20T11:55:10;10.60;85.50
53962;DHT22;39868;53.398;6.564;2023-12-20T11:57:38;10.70;85.50
53962;DHT22;39868;53.398;6.564;2023-12-20T12:00:06;10.70;85.40
53962;DHT22;39868;53.398;6.564;2023-12-20T12:02:39;10.70;85.40
53962;DHT22;39868;53.398;6.564;2023-12-20T12:05:07;10.70;85.10
53962;DHT22;39868;53.398;6.564;2023-12-20T12:07:35;10.70;85.10
53962;DHT22;39868;53.398;6.564;2023-12-20T12:10:03;10.70;85.10
53962;DHT22;39868;53.398;6.564;2023-12-20T12:12:31;10.80;85.10
53962;DHT22;39868;53.398;6.564;2023-12-20T12:14:59;10.70;84.80
53962;DHT22;39868;53.398;6.564;2023-12-20T12:17:26;10.70;84.70
53962;DHT22;39868;53.398;6.564;2023-12-20T12:20:02;10.70;84.20
53962;DHT22;39868;53.398;6.564;2023-12-20T12:22:31;10.70;84.30
53962;DHT22;39868;53.398;6.564;2023-12-20T12:25:10;10.70;84.30
53962;DHT22;39868;53.398;6.564;2023-12-20T12:27:41;10.70;84.20
53962;DHT22;39868;53.398;6.564;2023-12-20T12:30:10;10.70;84.20
53962;DHT22;39868;53.398;6.564;2023-12-20T12:32:40;10.70;84.10
53962;DHT22;39868;53.398;6.564;2023-12-20T12:35:08;10.70;84.00
53962;DHT22;39868;53.398;6.564;2023-12-20T12:37:40;10.70;83.90
53962;DHT22;39868;53.398;6.564;2023-12-20T12:40:16;10.60;83.60
53962;DHT22;39868;53.398;6.564;2023-12-20T12:42:44;10.60;83.80
53962;DHT22;39868;53.398;6.564;2023-12-20T12:45:12;10.60;83.70
53962;DHT22;39868;53.398;6.564;2023-12-20T12:47:40;10.60;84.00
53962;DHT22;39868;53.398;6.564;2023-12-20T12:50:08;10.70;84.00
53962;DHT22;39868;53.398;6.564;2023-12-20T12:52:35;10.70;84.10
53962;DHT22;39868;53.398;6.564;2023-12-20T12:55:03;10.70;84.00
53962;DHT22;39868;53.398;6.564;2023-12-20T12:57:32;10.70;83.90
53962;DHT22;39868;53.398;6.564;2023-12-20T13:00:02;10.70;84.10
53962;DHT22;39868;53.398;6.564;2023-12-20T13:02:30;10.70;83.90
53962;DHT22;39868;53.398;6.564;2023-12-20T13:04:58;10.80;83.90
53962;DHT22;39868;53.398;6.564;2023-12-20T13:07:26;10.70;83.70
53962;DHT22;39868;53.398;6.564;2023-12-20T13:09:53;10.70;83.90
53962;DHT22;39868;53.398;6.564;2023-12-20T13:12:21;10.70;83.90
53962;DHT22;39868;53.398;6.564;2023-12-20T13:14:48;10.80;83.60
53962;DHT22;39868;53.398;6.564;2023-12-20T13:17:15;10.70;83.80
53962;DHT22;39868;53.398;6.564;2023-12-20T13:19:43;10.80;83.80
53962;DHT22;39868;53.398;6.564;2023-12-20T13:22:11;10.80;83.90
53962;DHT22;39868;53.398;6.564;2023-12-20T13:24:38;10.80;84.00
53962;DHT22;39868;53.398;6.564;2023-12-20T13:27:05;10.90;84.10
53962;DHT22;39868;53.398;6.564;2023-12-20T13:29:33;10.90;83.90
53962;DHT22;39868;53.398;6.564;2023-12-20T13:32:02;10.90;84.00
53962;DHT22;39868;53.398;6.564;2023-12-20T13:34:30;10.90;83.90
53962;DHT22;39868;53.398;6.564;2023-12-20T13:36:58;10.90;83.60
53962;DHT22;39868;53.398;6.564;2023-12-20T13:39:26;10.80;83.60
53962;DHT22;39868;53.398;6.564;2023-12-20T13:41:53;10.80;83.70
53962;DHT22;39868;53.398;6.564;2023-12-20T13:44:23;10.80;83.80
53962;DHT22;39868;53.398;6.564;2023-12-20T13:46:50;10.80;83.90
53962;DHT22;39868;53.398;6.564;2023-12-20T13:49:17;10.80;83.90
53962;DHT22;39868;53.398;6.564;2023-12-20T13:51:45;10.70;84.00
53962;DHT22;39868;53.398;6.564;2023-12-20T13:54:13;10.70;83.90
53962;DHT22;39868;53.398;6.564;2023-12-20T13:56:43;10.70;83.70
53962;DHT22;39868;53.398;6.564;2023-12-20T13:59:30;10.70;83.90
53962;DHT22;39868;53.398;6.564;2023-12-20T14:01:57;10.60;83.90
53962;DHT22;39868;53.398;6.564;2023-12-20T14:04:24;10.60;84.00
53962;DHT22;39868;53.398;6.564;2023-12-20T14:07:09;10.60;84.00
53962;DHT22;39868;53.398;6.564;2023-12-20T14:09:39;10.60;84.20
53962;DHT22;39868;53.398;6.564;2023-12-20T14:12:13;10.50;84.30
53962;DHT22;39868;53.398;6.564;2023-12-20T14:14:40;10.50;84.30
53962;DHT22;39868;53.398;6.564;2023-12-20T14:17:08;10.50;84.50
53962;DHT22;39868;53.398;6.564;2023-12-20T14:19:36;10.40;84.70
53962;DHT22;39868;53.398;6.564;2023-12-20T14:22:03;10.30;84.80
53962;DHT22;39868;53.398;6.564;2023-12-20T14:24:31;10.30;85.00
53962;DHT22;39868;53.398;6.564;2023-12-20T14:26:59;10.20;85.00
53962;DHT22;39868;53.398;6.564;2023-12-20T14:29:26;10.20;85.10
53962;DHT22;39868;53.398;6.564;2023-12-20T14:31:54;10.10;85.10
53962;DHT22;39868;53.398;6.564;2023-12-20T14:34:21;10.00;85.10
53962;DHT22;39868;53.398;6.564;2023-12-20T14:36:51;9.90;85.10
53962;DHT22;39868;53.398;6.564;2023-12-20T14:39:19;9.80;85.10
53962;DHT22;39868;53.398;6.564;2023-12-20T14:41:46;9.80;85.20
53962;DHT22;39868;53.398;6.564;2023-12-20T14:44:14;9.70;85.20
53962;DHT22;39868;53.398;6.564;2023-12-20T14:46:41;9.60;85.30
53962;DHT22;39868;53.398;6.564;2023-12-20T14:49:08;9.60;85.30
53962;DHT22;39868;53.398;6.564;2023-12-20T14:51:36;9.50;85.40
53962;DHT22;39868;53.398;6.564;2023-12-20T14:54:05;9.50;85.50
53962;DHT22;39868;53.398;6.564;2023-12-20T14:56:37;9.40;85.50
53962;DHT22;39868;53.398;6.564;2023-12-20T14:59:04;9.40;85.60
53962;DHT22;39868;53.398;6.564;2023-12-20T15:01:32;9.40;85.70
53962;DHT22;39868;53.398;6.564;2023-12-20T15:03:59;9.30;85.70
53962;DHT22;39868;53.398;6.564;2023-12-20T15:06:27;9.30;85.80
53962;DHT22;39868;53.398;6.564;2023-12-20T15:08:55;9.20;85.80
53962;DHT22;39868;53.398;6.564;2023-12-20T15:11:22;9.30;85.90
53962;DHT22;39868;53.398;6.564;2023-12-20T15:13:49;9.20;85.90
53962;DHT22;39868;53.398;6.564;2023-12-20T15:16:22;9.20;86.00
53962;DHT22;39868;53.398;6.564;2023-12-20T15:18:50;9.20;86.10
53962;DHT22;39868;53.398;6.564;2023-12-20T15:21:17;9.20;86.20
53962;DHT22;39868;53.398;6.564;2023-12-20T15:23:45;9.20;86.30
53962;DHT22;39868;53.398;6.564;2023-12-20T15:26:21;9.20;86.40
53962;DHT22;39868;53.398;6.564;2023-12-20T15:28:48;9.20;86.50
53962;DHT22;39868;53.398;6.564;2023-12-20T15:31:16;9.20;86.60
53962;DHT22;39868;53.398;6.564;2023-12-20T15:33:43;9.20;86.70
53962;DHT22;39868;53.398;6.564;2023-12-20T15:36:11;9.20;86.80
53962;DHT22;39868;53.398;6.564;2023-12-20T15:38:38;9.20;86.80
53962;DHT22;39868;53.398;6.564;2023-12-20T15:41:05;9.20;87.00
53962;DHT22;39868;53.398;6.564;2023-12-20T15:43:32;9.20;87.10
53962;DHT22;39868;53.398;6.564;2023-12-20T15:46:00;9.20;87.20
53962;DHT22;39868;53.398;6.564;2023-12-20T15:48:31;9.20;87.30
53962;DHT22;39868;53.398;6.564;2023-12-20T15:50:59;9.20;87.30
53962;DHT22;39868;53.398;6.564;2023-12-20T15:53:26;9.20;87.40
53962;DHT22;39868;53.398;6.564;2023-12-20T15:55:53;9.30;87.60